createdAt,value
2022-09-15T00:00:32.841Z,2.72
2022-09-15T00:03:00.892Z,2.65
2022-09-15T00:05:28.542Z,2.83
2022-09-15T00:07:55.998Z,2.55
2022-09-15T00:10:23.627Z,3.30
2022-09-15T00:12:51.188Z,2.78
2022-09-15T00:15:18.838Z,2.90
2022-09-15T00:17:50.000Z,3.00
2022-09-15T00:20:18.628Z,2.53
2022-09-15T00:22:46.088Z,2.53
2022-09-15T00:25:14.302Z,2.70
2022-09-15T00:30:23.671Z,2.30
2022-09-15T00:32:51.284Z,2.60
2022-09-15T00:35:18.701Z,2.80
2022-09-15T00:37:46.188Z,2.58
2022-09-15T00:40:13.863Z,2.50
2022-09-15T00:42:41.396Z,2.77
2022-09-15T00:45:15.307Z,3.10
2022-09-15T00:47:42.814Z,2.50
2022-09-15T00:50:15.956Z,2.40
2022-09-15T00:52:52.531Z,2.40
2022-09-15T00:55:22.209Z,2.13
2022-09-15T00:58:01.214Z,2.15
2022-09-15T01:00:29.406Z,2.38
2022-09-15T01:02:57.440Z,2.47
2022-09-15T01:05:26.914Z,2.70
2022-09-15T01:07:57.112Z,1.70
2022-09-15T01:10:29.687Z,2.47
2022-09-15T01:13:01.564Z,2.20
2022-09-15T01:15:47.938Z,2.38
2022-09-15T01:18:15.476Z,2.25
2022-09-15T01:20:52.352Z,2.53
2022-09-15T01:23:25.957Z,2.00
2022-09-15T01:25:59.836Z,2.17
2022-09-15T01:28:30.439Z,2.03
2022-09-15T01:31:04.326Z,2.58
2022-09-15T01:33:36.927Z,2.20
2022-09-15T01:36:07.546Z,2.42
2022-09-15T01:38:55.907Z,2.40
2022-09-15T01:41:26.473Z,2.00
2022-09-15T01:43:54.124Z,2.97
2022-09-15T01:46:25.205Z,2.10
2022-09-15T01:48:55.127Z,2.60
2022-09-15T01:51:23.311Z,2.35
2022-09-15T01:53:51.685Z,2.75
2022-09-15T01:56:19.379Z,2.65
2022-09-15T01:58:50.067Z,2.42
2022-09-15T02:01:28.374Z,2.28
2022-09-15T02:03:56.013Z,2.85
2022-09-15T02:06:29.803Z,2.38
2022-09-15T02:09:00.628Z,2.67
2022-09-15T02:11:29.059Z,2.65
2022-09-15T02:14:11.536Z,3.13
2022-09-15T02:16:40.274Z,3.20
2022-09-15T02:22:03.643Z,2.78
2022-09-15T02:24:35.720Z,2.50
2022-09-15T02:27:04.915Z,2.80
2022-09-15T02:29:34.657Z,2.95
2022-09-15T02:32:06.851Z,3.05
2022-09-15T02:34:39.697Z,3.05
2022-09-15T02:37:07.577Z,2.80
2022-09-15T02:39:39.976Z,3.13
2022-09-15T02:42:10.927Z,3.33
2022-09-15T02:44:38.640Z,3.05
2022-09-15T02:47:06.184Z,3.17
2022-09-15T02:49:33.643Z,3.70
2022-09-15T02:52:01.125Z,2.92
2022-09-15T02:54:28.674Z,3.00
2022-09-15T02:56:56.154Z,2.72
2022-09-15T02:59:23.608Z,3.00
2022-09-15T03:01:52.370Z,3.00
2022-09-15T03:04:19.883Z,3.40
2022-09-15T03:06:47.337Z,3.10
2022-09-15T03:09:15.053Z,3.28
2022-09-15T03:11:42.532Z,3.70
2022-09-15T03:14:10.294Z,3.17
2022-09-15T03:16:37.830Z,3.10
2022-09-15T03:19:05.817Z,3.63
2022-09-15T03:21:33.405Z,3.58
2022-09-15T03:24:00.891Z,3.05
2022-09-15T03:26:28.520Z,3.50
2022-09-15T03:28:55.969Z,3.17
2022-09-15T03:31:23.620Z,3.50
2022-09-15T03:33:51.345Z,3.35
2022-09-15T03:36:18.892Z,3.30
2022-09-15T03:38:46.392Z,2.95
2022-09-15T03:41:14.214Z,3.30
2022-09-15T03:43:42.040Z,3.40
2022-09-15T03:46:11.567Z,3.65
2022-09-15T03:48:40.639Z,3.28
2022-09-15T03:51:09.380Z,3.70
2022-09-15T03:56:09.438Z,3.22
2022-09-15T03:58:37.058Z,3.35
2022-09-15T04:01:05.242Z,3.90
2022-09-15T04:03:32.865Z,3.15
2022-09-15T04:06:00.453Z,3.90
2022-09-15T04:08:28.043Z,3.83
2022-09-15T04:10:55.592Z,3.90
2022-09-15T04:13:27.978Z,3.78
2022-09-15T04:16:02.937Z,3.40
2022-09-15T04:18:31.152Z,3.42
2022-09-15T04:21:02.208Z,3.95
2022-09-15T04:23:29.690Z,3.90
2022-09-15T04:25:58.455Z,3.50
2022-09-15T04:28:26.825Z,3.58
2022-09-15T04:30:55.038Z,3.95
2022-09-15T04:33:22.751Z,3.53
2022-09-15T04:35:50.306Z,3.40
2022-09-15T04:38:17.763Z,3.33
2022-09-15T04:40:45.635Z,3.67
2022-09-15T04:43:13.224Z,3.28
2022-09-15T04:45:41.062Z,3.40
2022-09-15T04:48:08.658Z,3.25
2022-09-15T04:50:36.111Z,3.40
2022-09-15T04:53:03.582Z,3.38
2022-09-15T04:55:32.623Z,3.53
2022-09-15T04:58:00.164Z,3.08
2022-09-15T05:00:27.720Z,2.85
2022-09-15T05:02:55.184Z,3.20
2022-09-15T05:05:23.316Z,3.38
2022-09-15T05:07:51.036Z,3.38
2022-09-15T05:10:18.687Z,3.83
2022-09-15T05:12:46.365Z,4.10
2022-09-15T05:15:13.957Z,3.85
2022-09-15T05:17:41.443Z,3.92
2022-09-15T05:20:09.351Z,4.18
2022-09-15T05:22:41.487Z,3.70
2022-09-15T05:25:09.577Z,4.07
2022-09-15T05:27:39.339Z,4.18
2022-09-15T05:30:37.583Z,4.30
2022-09-15T05:32:56.362Z,4.05
2022-09-15T05:35:23.959Z,3.63
2022-09-15T05:37:51.394Z,4.40
2022-09-15T05:40:21.872Z,4.13
2022-09-15T05:42:49.383Z,4.28
2022-09-15T05:45:17.177Z,3.13
2022-09-15T05:47:44.704Z,3.85
2022-09-15T05:50:12.337Z,3.42
2022-09-15T05:52:40.315Z,3.65
2022-09-15T05:55:08.273Z,3.90
2022-09-15T05:57:35.719Z,3.90
2022-09-15T06:00:04.039Z,3.75
2022-09-15T06:02:39.456Z,3.53
2022-09-15T06:05:07.239Z,4.35
2022-09-15T06:07:34.835Z,4.00
2022-09-15T06:10:02.293Z,3.47
2022-09-15T06:12:29.758Z,3.90
2022-09-15T06:14:57.398Z,3.58
2022-09-15T06:17:24.989Z,3.60
2022-09-15T06:19:52.610Z,3.67
2022-09-15T06:22:20.081Z,2.90
2022-09-15T06:24:47.628Z,3.28
2022-09-15T06:27:15.049Z,3.67
2022-09-15T06:29:42.536Z,3.28
2022-09-15T06:32:10.066Z,3.55
2022-09-15T06:34:37.598Z,2.58
2022-09-15T06:37:05.117Z,2.55
2022-09-15T06:39:33.174Z,3.37
2022-09-15T06:42:03.181Z,2.80
2022-09-15T06:44:31.724Z,2.95
2022-09-15T06:46:59.221Z,3.00
2022-09-15T06:49:26.779Z,2.65
2022-09-15T06:51:54.268Z,3.10
2022-09-15T06:54:21.770Z,2.78
2022-09-15T06:56:49.219Z,2.20
2022-09-15T06:59:17.178Z,2.58
2022-09-15T07:01:44.837Z,2.47
2022-09-15T07:04:12.381Z,2.40
2022-09-15T07:06:40.519Z,2.42
2022-09-15T07:09:08.094Z,2.28
2022-09-15T07:11:35.857Z,2.47
2022-09-15T07:14:03.421Z,2.37
2022-09-15T07:16:31.051Z,2.78
2022-09-15T07:19:03.508Z,2.92
2022-09-15T07:21:31.073Z,3.15
2022-09-15T07:24:00.002Z,2.50
2022-09-15T07:26:31.355Z,2.42
2022-09-15T07:29:00.867Z,1.95
2022-09-15T07:31:31.291Z,2.00
2022-09-15T07:34:02.396Z,2.00
2022-09-15T07:36:30.394Z,2.00
2022-09-15T07:38:58.149Z,2.35
2022-09-15T07:41:27.512Z,2.10
2022-09-15T07:43:55.704Z,2.00
2022-09-15T07:46:23.965Z,2.55
2022-09-15T07:51:34.422Z,2.00
2022-09-15T07:54:01.879Z,1.95
2022-09-15T07:56:29.375Z,2.10
2022-09-15T07:58:57.591Z,1.90
2022-09-15T08:01:25.134Z,2.15
2022-09-15T08:03:59.797Z,1.90
2022-09-15T08:06:28.279Z,2.28
2022-09-15T08:09:00.340Z,2.15
2022-09-15T08:11:28.794Z,2.00
2022-09-15T08:13:56.332Z,2.55
2022-09-15T08:16:24.591Z,3.30
2022-09-15T08:19:03.647Z,2.80
2022-09-15T08:21:44.871Z,2.30
2022-09-15T08:24:13.191Z,3.10
2022-09-15T08:26:42.222Z,2.23
2022-09-15T08:29:10.023Z,2.78
2022-09-15T08:31:37.665Z,2.37
2022-09-15T08:34:06.989Z,2.20
2022-09-15T08:36:34.691Z,2.60
2022-09-15T08:39:02.273Z,2.90
2022-09-15T08:41:35.505Z,2.75
2022-09-15T08:44:21.796Z,2.95
2022-09-15T08:46:54.148Z,3.15
2022-09-15T08:49:50.701Z,2.42
2022-09-15T08:52:22.399Z,2.58
2022-09-15T08:54:51.614Z,3.20
2022-09-15T08:57:20.893Z,3.35
2022-09-15T08:59:48.514Z,3.00
2022-09-15T09:02:35.465Z,2.95
2022-09-15T09:05:15.362Z,2.78
2022-09-15T09:07:52.372Z,2.97
2022-09-15T09:10:29.532Z,3.15
2022-09-15T09:13:03.561Z,2.88
2022-09-15T09:15:39.553Z,3.10
2022-09-15T09:18:07.587Z,2.60
2022-09-15T09:20:42.987Z,3.10
2022-09-15T09:23:13.855Z,2.60
2022-09-15T09:25:42.294Z,4.07
2022-09-15T09:28:38.926Z,2.75
2022-09-15T09:31:08.450Z,2.33
2022-09-15T09:33:47.490Z,2.53
2022-09-15T09:36:15.336Z,3.33
2022-09-15T09:38:44.727Z,3.13
2022-09-15T09:41:14.642Z,3.30
2022-09-15T09:43:43.927Z,3.38
2022-09-15T09:46:15.033Z,2.58
2022-09-15T09:48:53.627Z,2.70
2022-09-15T09:51:31.227Z,2.83
2022-09-15T09:54:04.788Z,2.33
2022-09-15T09:56:32.336Z,2.78
2022-09-15T09:58:59.917Z,3.50
2022-09-15T10:01:27.650Z,3.88
2022-09-15T10:04:17.775Z,3.07
2022-09-15T10:06:45.423Z,2.50
2022-09-15T10:09:19.940Z,2.22
2022-09-15T10:11:51.749Z,2.47
2022-09-15T10:14:25.530Z,2.25
2022-09-15T10:16:57.837Z,2.60
2022-09-15T10:19:25.535Z,2.10
2022-09-15T10:21:53.076Z,3.10
2022-09-15T10:24:26.563Z,2.85
2022-09-15T10:27:06.647Z,3.67
2022-09-15T10:29:40.808Z,2.50
2022-09-15T10:32:28.593Z,2.42
2022-09-15T10:35:00.480Z,2.40
2022-09-15T10:37:27.907Z,2.70
2022-09-15T10:39:59.888Z,2.85
2022-09-15T10:42:30.532Z,2.95
2022-09-15T10:45:08.499Z,3.25
2022-09-15T10:47:59.030Z,3.00
2022-09-15T10:50:44.115Z,3.97
2022-09-15T10:53:11.554Z,5.22
2022-09-15T10:55:59.598Z,6.80
2022-09-15T10:58:33.802Z,3.67
2022-09-15T11:01:21.612Z,3.70
2022-09-15T11:03:49.290Z,4.22
2022-09-15T11:06:25.908Z,4.22
2022-09-15T11:08:59.678Z,3.50
2022-09-15T11:11:30.804Z,3.75
2022-09-15T11:14:06.243Z,3.10
2022-09-15T11:16:38.231Z,3.78
2022-09-15T11:19:09.202Z,11.52
2022-09-15T11:21:47.315Z,14.35
2022-09-15T11:24:24.994Z,12.68
2022-09-15T11:26:55.244Z,10.10
2022-09-15T11:29:25.822Z,4.18
2022-09-15T11:31:55.788Z,4.65
2022-09-15T11:34:40.033Z,4.38
2022-09-15T11:37:13.967Z,3.67
2022-09-15T11:39:51.213Z,5.97
2022-09-15T11:42:21.405Z,4.53
2022-09-15T11:44:49.457Z,3.35
2022-09-15T11:47:23.298Z,4.65
2022-09-15T11:49:53.575Z,7.82
2022-09-15T11:52:27.408Z,7.40
2022-09-15T11:54:57.988Z,3.72
2022-09-15T11:57:35.534Z,8.95
2022-09-15T12:00:12.071Z,6.07
2022-09-15T12:02:42.661Z,2.95
2022-09-15T12:05:13.268Z,2.03
2022-09-15T12:07:59.744Z,1.85
2022-09-15T12:10:32.219Z,1.88
2022-09-15T12:13:00.829Z,2.10
2022-09-15T12:18:34.227Z,1.90
2022-09-15T12:21:04.531Z,1.83
2022-09-15T12:23:34.801Z,1.63
2022-09-15T12:26:22.011Z,2.17
2022-09-15T12:28:54.279Z,2.50
2022-09-15T12:31:27.553Z,1.30
2022-09-15T12:33:55.266Z,1.65
2022-09-15T12:36:38.203Z,1.92
2022-09-15T12:39:19.366Z,1.40
2022-09-15T12:41:55.561Z,1.27
2022-09-15T12:44:42.263Z,1.70
2022-09-15T12:47:20.131Z,1.50
2022-09-15T12:49:49.447Z,2.80
2022-09-15T12:52:18.008Z,2.33
2022-09-15T12:57:36.374Z,2.40
2022-09-15T13:00:30.337Z,2.08
2022-09-15T13:02:58.132Z,1.90
2022-09-15T13:05:47.379Z,1.00
2022-09-15T13:08:36.351Z,1.30
2022-09-15T13:11:03.924Z,1.38
2022-09-15T13:13:38.540Z,1.70
2022-09-15T13:16:09.104Z,1.55
2022-09-15T13:18:37.061Z,1.10
2022-09-15T13:21:06.867Z,0.80
2022-09-15T13:23:37.565Z,1.33
2022-09-15T13:26:07.512Z,1.45
2022-09-15T13:28:35.527Z,1.67
2022-09-15T13:31:09.146Z,1.30
2022-09-15T13:39:42.188Z,1.50
2022-09-15T13:42:20.128Z,1.60
2022-09-15T13:44:56.852Z,1.60
2022-09-15T13:47:27.708Z,1.55
2022-09-15T13:50:14.811Z,1.80
2022-09-15T13:53:00.667Z,1.80
2022-09-15T13:55:29.886Z,3.67
2022-09-15T14:00:53.971Z,1.60
2022-09-15T14:03:40.042Z,1.90
2022-09-15T14:06:16.303Z,2.42
2022-09-15T14:08:44.956Z,1.90
2022-09-15T14:13:43.184Z,1.60
2022-09-15T14:16:19.873Z,2.33
2022-09-15T14:18:47.872Z,2.40
2022-09-15T14:21:25.399Z,3.42
2022-09-15T14:23:54.170Z,1.30
2022-09-15T14:28:59.363Z,1.67
2022-09-15T14:31:37.448Z,1.23
2022-09-15T14:34:14.636Z,1.73
2022-09-15T14:36:42.400Z,1.70
2022-09-15T14:39:12.637Z,2.90
2022-09-15T14:41:40.681Z,2.70
2022-09-15T14:47:28.112Z,1.55
2022-09-15T14:50:14.662Z,1.20
2022-09-15T14:52:45.226Z,1.35
2022-09-15T14:55:19.188Z,1.77
2022-09-15T14:57:52.374Z,1.40
2022-09-15T15:00:23.036Z,1.70
2022-09-15T15:02:53.635Z,2.28
2022-09-15T15:05:27.516Z,2.53
2022-09-15T15:07:56.030Z,2.95
2022-09-15T15:10:25.842Z,2.17
2022-09-15T15:12:54.412Z,2.35
2022-09-15T15:17:51.100Z,1.92
2022-09-15T15:20:26.940Z,2.60
2022-09-15T15:23:10.077Z,2.10
2022-09-15T15:25:37.627Z,1.55
2022-09-15T15:28:06.135Z,1.60
2022-09-15T15:30:35.802Z,1.80
2022-09-15T15:33:07.903Z,1.65
2022-09-15T15:35:35.901Z,1.88
2022-09-15T15:38:04.876Z,2.03
2022-09-15T15:40:32.776Z,3.60
2022-09-15T15:43:03.230Z,2.30
2022-09-15T15:45:31.593Z,1.73
2022-09-15T15:47:59.173Z,1.67
2022-09-15T15:50:28.250Z,1.65
2022-09-15T15:52:55.823Z,2.05
2022-09-15T15:55:24.574Z,1.63
2022-09-15T16:00:23.993Z,2.63
2022-09-15T16:02:52.249Z,2.15
2022-09-15T16:05:20.879Z,2.80
2022-09-15T16:07:50.215Z,5.15
2022-09-15T16:10:19.333Z,6.20
2022-09-15T16:12:46.887Z,3.08
2022-09-15T16:15:14.597Z,2.33
2022-09-15T16:17:45.977Z,3.23
2022-09-15T16:20:16.213Z,8.10
2022-09-15T16:22:44.368Z,12.02
2022-09-15T16:25:14.653Z,8.20
2022-09-15T16:27:42.323Z,9.38
2022-09-15T16:30:12.141Z,4.40
2022-09-15T16:32:40.822Z,2.70
2022-09-15T16:37:35.648Z,1.80
2022-09-15T16:40:03.335Z,2.47
2022-09-15T16:42:30.853Z,4.18
2022-09-15T16:44:58.752Z,6.60
2022-09-15T16:47:26.184Z,3.88
2022-09-15T16:49:53.684Z,3.17
2022-09-15T16:52:21.148Z,2.83
2022-09-15T16:54:49.157Z,2.75
2022-09-15T16:57:19.447Z,2.38
2022-09-15T16:59:47.011Z,1.80
2022-09-15T17:02:15.216Z,2.35
2022-09-15T17:04:42.870Z,2.58
2022-09-15T17:07:10.364Z,1.73
2022-09-15T17:09:37.852Z,1.83
2022-09-15T17:12:05.495Z,2.17
2022-09-15T17:14:32.960Z,2.47
2022-09-15T17:17:00.423Z,2.20
2022-09-15T17:19:27.859Z,1.85
2022-09-15T17:21:55.568Z,2.33
2022-09-15T17:24:23.056Z,1.88
2022-09-15T17:26:51.086Z,2.67
2022-09-15T17:29:18.542Z,4.68
2022-09-15T17:31:46.088Z,3.50
2022-09-15T17:34:14.560Z,2.25
2022-09-15T17:36:42.039Z,3.13
2022-09-15T17:39:09.559Z,2.75
2022-09-15T17:41:38.703Z,2.20
2022-09-15T17:44:10.181Z,2.30
2022-09-15T17:46:37.810Z,2.38
2022-09-15T17:49:05.351Z,2.25
2022-09-15T17:51:32.964Z,2.40
2022-09-15T17:54:00.444Z,1.90
2022-09-15T17:56:27.966Z,2.55
2022-09-15T17:58:55.471Z,2.78
2022-09-15T18:01:23.016Z,3.17
2022-09-15T18:03:50.577Z,2.85
2022-09-15T18:06:18.141Z,3.03
2022-09-15T18:08:45.693Z,4.05
2022-09-15T18:11:15.063Z,3.15
2022-09-15T18:13:43.223Z,2.97
2022-09-15T18:16:12.979Z,2.75
2022-09-15T18:18:41.113Z,2.60
2022-09-15T18:21:10.179Z,2.40
2022-09-15T18:23:39.175Z,2.55
2022-09-15T18:26:06.621Z,2.53
2022-09-15T18:28:34.101Z,3.95
2022-09-15T18:31:01.514Z,5.88
2022-09-15T18:33:29.193Z,5.53
2022-09-15T18:35:59.111Z,4.80
2022-09-15T18:38:26.708Z,5.03
2022-09-15T18:40:56.049Z,3.35
2022-09-15T18:43:25.420Z,3.25
2022-09-15T18:45:55.141Z,2.70
2022-09-15T18:48:22.807Z,2.85
2022-09-15T18:50:50.312Z,2.00
2022-09-15T18:53:17.847Z,2.00
2022-09-15T18:55:45.328Z,2.10
2022-09-15T18:58:13.610Z,2.30
2022-09-15T19:00:41.274Z,2.40
2022-09-15T19:03:09.771Z,2.40
2022-09-15T19:05:38.680Z,2.17
2022-09-15T19:08:08.554Z,3.50
2022-09-15T19:10:36.197Z,2.72
2022-09-15T19:13:03.724Z,2.58
2022-09-15T19:15:33.858Z,2.60
2022-09-15T19:18:02.131Z,2.40
2022-09-15T19:20:30.597Z,2.80
2022-09-15T19:22:58.812Z,2.95
2022-09-15T19:25:26.429Z,2.70
2022-09-15T19:27:54.049Z,2.60
2022-09-15T19:30:21.615Z,2.75
2022-09-15T19:32:49.068Z,2.30
2022-09-15T19:35:16.685Z,2.13
2022-09-15T19:37:44.271Z,2.08
2022-09-15T19:40:13.175Z,2.40
2022-09-15T19:42:41.263Z,2.30
2022-09-15T19:45:10.478Z,2.60
2022-09-15T19:47:38.562Z,4.40
2022-09-15T19:50:08.119Z,2.70
2022-09-15T19:52:35.669Z,2.58
2022-09-15T19:55:03.729Z,2.47
2022-09-15T19:57:31.311Z,2.80
2022-09-15T19:59:58.913Z,3.20
2022-09-15T20:02:26.494Z,2.75
2022-09-15T20:04:54.110Z,3.10
2022-09-15T20:07:21.644Z,3.15
2022-09-15T20:09:49.359Z,4.60
2022-09-15T20:12:17.004Z,3.85
2022-09-15T20:14:44.588Z,4.90
2022-09-15T20:17:12.594Z,15.65
2022-09-15T20:19:40.293Z,6.28
2022-09-15T20:22:07.960Z,3.87
2022-09-15T20:24:35.522Z,3.80
2022-09-15T20:27:03.314Z,3.45
2022-09-15T20:29:30.948Z,2.78
2022-09-15T20:31:58.645Z,2.88
2022-09-15T20:34:33.904Z,2.30
2022-09-15T20:37:06.446Z,2.08
2022-09-15T20:39:50.077Z,2.10
2022-09-15T20:42:26.233Z,2.40
2022-09-15T20:44:55.691Z,4.00
2022-09-15T20:47:29.737Z,3.05
2022-09-15T20:49:57.536Z,3.00
2022-09-15T20:52:29.441Z,3.78
2022-09-15T20:54:57.179Z,3.63
2022-09-15T20:57:24.591Z,4.75
2022-09-15T20:59:52.108Z,3.00
2022-09-15T21:02:19.580Z,2.85
2022-09-15T21:04:47.262Z,2.60
2022-09-15T21:07:14.841Z,2.13
2022-09-15T21:09:44.103Z,1.70
2022-09-15T21:12:11.579Z,2.35
2022-09-15T21:14:39.120Z,2.00
2022-09-15T21:17:07.159Z,2.00
2022-09-15T21:19:34.591Z,2.00
2022-09-15T21:22:02.154Z,2.05
2022-09-15T21:24:29.634Z,2.22
2022-09-15T21:27:15.753Z,2.85
2022-09-15T21:29:43.445Z,3.35
2022-09-15T21:32:11.421Z,2.53
2022-09-15T21:34:39.140Z,2.33
2022-09-15T21:37:06.593Z,2.20
2022-09-15T21:39:34.467Z,2.67
2022-09-15T21:42:01.927Z,2.63
2022-09-15T21:44:29.835Z,2.20
2022-09-15T21:46:57.474Z,2.75
2022-09-15T21:49:24.945Z,2.47
2022-09-15T21:51:52.937Z,2.60
2022-09-15T21:54:20.671Z,2.33
2022-09-15T21:56:48.917Z,2.07
2022-09-15T21:59:18.467Z,2.20
2022-09-15T22:01:46.483Z,1.90
2022-09-15T22:04:14.171Z,2.90
2022-09-15T22:06:42.088Z,3.25
2022-09-15T22:09:10.881Z,2.72
2022-09-15T22:11:38.577Z,3.20
2022-09-15T22:14:08.390Z,2.88
2022-09-15T22:16:37.284Z,3.67
2022-09-15T22:19:05.721Z,3.58
2022-09-15T22:21:36.944Z,2.95
2022-09-15T22:24:05.877Z,2.25
2022-09-15T22:26:34.844Z,2.40
2022-09-15T22:29:02.625Z,2.97
2022-09-15T22:31:30.345Z,3.45
2022-09-15T22:33:57.959Z,2.90
2022-09-15T22:36:29.163Z,3.08
2022-09-15T22:39:04.036Z,3.10
2022-09-15T22:41:36.330Z,4.00
2022-09-15T22:44:04.531Z,2.65
2022-09-15T22:46:32.103Z,2.75
2022-09-15T22:48:59.944Z,2.75
2022-09-15T22:51:27.394Z,2.70
2022-09-15T22:53:57.182Z,2.60
2022-09-15T22:56:26.414Z,2.75
2022-09-15T22:58:54.295Z,2.75
2022-09-15T23:01:26.211Z,7.72
2022-09-15T23:03:54.821Z,9.38
2022-09-15T23:06:22.947Z,6.47
2022-09-15T23:08:51.649Z,7.00
2022-09-15T23:13:46.712Z,4.22
2022-09-15T23:16:14.274Z,3.90
2022-09-15T23:18:41.828Z,3.50
2022-09-15T23:21:10.523Z,2.72
2022-09-15T23:26:06.351Z,2.85
2022-09-15T23:28:33.860Z,2.22
2022-09-15T23:31:01.398Z,2.47
2022-09-15T23:33:29.731Z,2.67
2022-09-15T23:35:59.256Z,2.95
2022-09-15T23:38:26.793Z,5.68
2022-09-15T23:40:54.351Z,5.72
2022-09-15T23:43:22.473Z,6.22
2022-09-15T23:45:51.329Z,3.25
2022-09-15T23:48:18.951Z,2.70
2022-09-15T23:50:46.995Z,2.40
2022-09-15T23:53:14.474Z,2.95
2022-09-15T23:55:41.956Z,2.45
2022-09-15T23:58:09.459Z,2.50
